Terminal Aerodrome Forecast
Issued by NWS North Platte, NE

Home | Current Version | Previous Version | Text Only | Print | Product List | Glossary On
Versions: 1 2 3 4 5 6 7 8 9 10 11 12 13 14
353
FTUS43 KLBF 082335
TAFLBF
TAF
KLBF 082335Z 0900/0924 VRB02KT P6SM SCT150
     FM090800 13005KT P6SM BKN110
     FM091600 15009KT P6SM BKN070
     FM092300 VRB03KT P6SM BKN070=

USA.gov is the U.S. government's official web portal to all federal, state and local government web resources and services.